createdAt,value
2023-02-09T00:01:20.650Z,-6.83
2023-02-09T00:03:47.447Z,-6.42
2023-02-09T00:06:16.863Z,-6.26
2023-02-09T00:08:43.567Z,-8.68
2023-02-09T00:11:18.512Z,-6.13
2023-02-09T00:13:46.333Z,-6.55
2023-02-09T00:16:13.097Z,-6.07
2023-02-09T00:18:40.010Z,-6.49
2023-02-09T00:21:11.421Z,-6.43
2023-02-09T00:23:40.645Z,-6.13
2023-02-09T00:26:10.814Z,-6.20
2023-02-09T00:28:38.707Z,-6.57
2023-02-09T00:31:11.548Z,-6.26
2023-02-09T00:33:40.448Z,-6.24
2023-02-09T00:36:11.626Z,-6.34
2023-02-09T00:38:39.418Z,-7.27
2023-02-09T00:41:06.730Z,-6.85
2023-02-09T00:43:34.076Z,-6.40
2023-02-09T00:46:00.956Z,-6.77
2023-02-09T00:48:27.950Z,-6.32
2023-02-09T00:50:56.254Z,-6.89
2023-02-09T00:53:23.736Z,-6.38
2023-02-09T00:55:50.919Z,-7.01
2023-02-09T00:58:17.816Z,-6.72
2023-02-09T01:00:44.952Z,-6.57
2023-02-09T01:03:12.355Z,-6.69
2023-02-09T01:05:42.772Z,-6.30
2023-02-09T01:08:10.969Z,-6.83
2023-02-09T01:10:38.430Z,-6.43
2023-02-09T01:13:05.489Z,-6.58
2023-02-09T01:15:32.387Z,-7.01
2023-02-09T01:17:59.632Z,-6.60
2023-02-09T01:20:26.747Z,-7.26
2023-02-09T01:22:53.498Z,-7.76
2023-02-09T01:25:20.191Z,-7.41
2023-02-09T01:27:46.989Z,-6.71
2023-02-09T01:30:15.049Z,-6.99
2023-02-09T01:32:41.892Z,-7.12
2023-02-09T01:35:08.716Z,-7.08
2023-02-09T01:37:37.558Z,-7.23
2023-02-09T01:40:05.725Z,-6.77
2023-02-09T01:42:32.861Z,-6.74
2023-02-09T01:45:25.563Z,-6.81
2023-02-09T01:48:10.929Z,-7.52
2023-02-09T01:50:41.156Z,-6.92
2023-02-09T01:53:08.550Z,-7.20
2023-02-09T01:55:41.450Z,-7.21
2023-02-09T01:58:13.854Z,-7.74
2023-02-09T02:00:40.697Z,-7.47
2023-02-09T02:03:12.449Z,-7.57
2023-02-09T02:05:42.802Z,-7.48
2023-02-09T02:08:18.375Z,-7.83
2023-02-09T02:10:45.600Z,-7.73
2023-02-09T02:13:12.570Z,-7.43
2023-02-09T02:16:05.628Z,-7.14
2023-02-09T02:18:52.548Z,-7.07
2023-02-09T02:21:44.739Z,-7.37
2023-02-09T02:24:40.295Z,-7.54
2023-02-09T02:27:38.241Z,-7.20
2023-02-09T02:30:28.909Z,-7.70
2023-02-09T02:33:00.216Z,-7.83
2023-02-09T02:35:36.028Z,-7.33
2023-02-09T02:38:12.939Z,-7.87
2023-02-09T02:40:54.930Z,-7.25
2023-02-09T02:43:49.461Z,-7.65
2023-02-09T02:46:39.647Z,-8.48
2023-02-09T02:49:26.538Z,-7.84
2023-02-09T02:51:58.382Z,-7.34
2023-02-09T02:54:30.559Z,-8.45
2023-02-09T02:57:02.857Z,-8.07
2023-02-09T02:59:33.463Z,-8.19
2023-02-09T03:02:09.878Z,-7.61
2023-02-09T03:04:38.655Z,-7.44
2023-02-09T03:07:06.915Z,-7.47
2023-02-09T03:09:34.064Z,-7.83
2023-02-09T03:12:17.511Z,-7.48
2023-02-09T03:14:50.789Z,-7.93
2023-02-09T03:17:48.390Z,-7.99
2023-02-09T03:20:36.454Z,-8.76
2023-02-09T03:23:07.607Z,-8.00
2023-02-09T03:25:56.305Z,-8.19
2023-02-09T03:28:28.902Z,-8.34
2023-02-09T03:30:57.740Z,-8.21
2023-02-09T03:33:33.285Z,-7.92
2023-02-09T03:36:02.416Z,-8.19
2023-02-09T03:38:29.034Z,-8.65
2023-02-09T03:40:55.777Z,-8.68
2023-02-09T03:43:22.373Z,-8.37
2023-02-09T03:45:49.063Z,-8.69
2023-02-09T03:48:15.723Z,-9.91
2023-02-09T03:50:42.437Z,-7.98
2023-02-09T03:53:08.998Z,-7.68
2023-02-09T03:55:36.156Z,-8.03
2023-02-09T03:58:02.820Z,-7.67
2023-02-09T04:00:29.566Z,-8.20
2023-02-09T04:02:56.302Z,-8.07
2023-02-09T04:05:23.070Z,-8.01
2023-02-09T04:07:49.845Z,-7.89
2023-02-09T04:10:16.689Z,-8.03
2023-02-09T04:12:43.288Z,-7.74
2023-02-09T04:15:10.698Z,-7.72
2023-02-09T04:17:37.394Z,-9.37
2023-02-09T04:20:04.360Z,-8.29
2023-02-09T04:22:30.973Z,-8.20
2023-02-09T04:24:58.176Z,-7.82
2023-02-09T04:27:24.817Z,-7.88
2023-02-09T04:29:51.529Z,-8.02
2023-02-09T04:32:18.267Z,-8.16
2023-02-09T04:34:44.917Z,-8.21
2023-02-09T04:37:11.550Z,-8.97
2023-02-09T04:39:38.263Z,-8.45
2023-02-09T04:42:04.960Z,-8.50
2023-02-09T04:44:31.642Z,-8.66
2023-02-09T04:46:58.316Z,-8.00
2023-02-09T04:49:25.028Z,-7.97
2023-02-09T04:51:51.625Z,-8.19
2023-02-09T04:54:18.361Z,-8.68
2023-02-09T04:56:46.117Z,-8.24
2023-02-09T04:59:12.903Z,-8.56
2023-02-09T05:01:39.887Z,-8.48
2023-02-09T05:04:06.588Z,-9.17
2023-02-09T05:06:33.464Z,-9.19
2023-02-09T05:09:00.223Z,-8.25
2023-02-09T05:11:26.839Z,-8.90
2023-02-09T05:13:53.744Z,-7.90
2023-02-09T05:16:20.891Z,-8.10
2023-02-09T05:18:47.714Z,-8.02
2023-02-09T05:21:14.460Z,-8.44
2023-02-09T05:23:42.440Z,-8.40
2023-02-09T05:26:09.420Z,-8.18
2023-02-09T05:28:36.467Z,-8.51
2023-02-09T05:31:03.818Z,-8.97
2023-02-09T05:33:30.826Z,-9.10
2023-02-09T05:36:01.994Z,-8.37
2023-02-09T05:38:31.081Z,-8.20
2023-02-09T05:40:57.714Z,-8.87
2023-02-09T05:43:24.435Z,-8.51
2023-02-09T05:45:52.206Z,-8.36
2023-02-09T05:48:18.852Z,-8.68
2023-02-09T05:50:45.843Z,-8.30
2023-02-09T05:53:15.625Z,-8.29
2023-02-09T05:55:42.761Z,-8.03
2023-02-09T05:58:10.004Z,-8.15
2023-02-09T06:00:36.630Z,-8.37
2023-02-09T06:03:03.521Z,-8.59
2023-02-09T06:05:30.278Z,-8.49
2023-02-09T06:07:57.073Z,-8.36
2023-02-09T06:10:23.717Z,-8.21
2023-02-09T06:12:50.507Z,-8.47
2023-02-09T06:15:17.286Z,-10.15
2023-02-09T06:17:44.429Z,-9.04
2023-02-09T06:20:11.842Z,-8.52
2023-02-09T06:22:38.650Z,-8.62
2023-02-09T06:25:05.946Z,-8.73
2023-02-09T06:27:32.641Z,-8.64
2023-02-09T06:29:59.832Z,-8.78
2023-02-09T06:32:28.522Z,-9.16
2023-02-09T06:34:55.585Z,-9.02
2023-02-09T06:37:22.899Z,-9.68
2023-02-09T06:39:51.098Z,-9.06
2023-02-09T06:42:17.819Z,-9.10
2023-02-09T06:44:44.596Z,-9.15
2023-02-09T06:47:11.382Z,-9.61
2023-02-09T06:49:37.980Z,-8.33
2023-02-09T06:52:05.389Z,-8.52
2023-02-09T06:54:31.985Z,-8.28
2023-02-09T06:56:58.686Z,-9.47
2023-02-09T06:59:25.430Z,-8.40
2023-02-09T07:01:55.022Z,-8.92
2023-02-09T07:04:22.285Z,-8.41
2023-02-09T07:06:49.004Z,-8.39
2023-02-09T07:09:15.601Z,-8.93
2023-02-09T07:11:42.304Z,-8.03
2023-02-09T07:14:08.952Z,-8.09
2023-02-09T07:16:35.690Z,-8.47
2023-02-09T07:19:02.323Z,-8.81
2023-02-09T07:21:29.196Z,-7.78
2023-02-09T07:23:55.829Z,-8.09
2023-02-09T07:26:22.476Z,-8.20
2023-02-09T07:28:49.394Z,-8.78
2023-02-09T07:31:16.671Z,-7.51
2023-02-09T07:33:43.553Z,-7.70
2023-02-09T07:36:12.772Z,-7.67
2023-02-09T07:38:40.026Z,-7.19
2023-02-09T07:41:08.184Z,-7.10
2023-02-09T07:43:35.084Z,-7.22
2023-02-09T07:46:07.220Z,-6.79
2023-02-09T07:48:35.102Z,-6.93
2023-02-09T07:51:02.518Z,-6.75
2023-02-09T07:53:29.677Z,-6.47
2023-02-09T07:55:57.054Z,-7.16
2023-02-09T07:58:24.237Z,-6.08
2023-02-09T08:00:51.625Z,-6.01
2023-02-09T08:03:23.907Z,-5.86
2023-02-09T08:05:53.573Z,-5.62
2023-02-09T08:08:20.250Z,-5.41
2023-02-09T08:10:47.277Z,-5.92
2023-02-09T08:13:14.382Z,-5.32
2023-02-09T08:15:52.654Z,-5.55
2023-02-09T08:18:25.317Z,-4.92
2023-02-09T08:20:53.257Z,-6.12
2023-02-09T08:23:25.046Z,-5.61
2023-02-09T08:25:52.111Z,-4.84
2023-02-09T08:28:19.899Z,-5.54
2023-02-09T08:30:49.117Z,-4.82
2023-02-09T08:33:16.760Z,-5.03
2023-02-09T08:35:44.198Z,-5.24
2023-02-09T08:38:11.037Z,-5.36
2023-02-09T08:40:39.113Z,-4.60
2023-02-09T08:43:05.749Z,-5.58
2023-02-09T08:45:32.802Z,-4.55
2023-02-09T08:47:59.519Z,-4.34
2023-02-09T08:50:26.246Z,-4.01
2023-02-09T08:52:52.821Z,-4.14
2023-02-09T08:55:19.907Z,-4.76
2023-02-09T08:57:46.633Z,-4.27
2023-02-09T09:00:14.052Z,-5.11
2023-02-09T09:02:40.694Z,-4.24
2023-02-09T09:05:07.712Z,-4.32
2023-02-09T09:07:34.423Z,-4.39
2023-02-09T09:10:01.207Z,-4.29
2023-02-09T09:12:30.127Z,-3.84
2023-02-09T09:14:57.067Z,-3.63
2023-02-09T09:17:23.684Z,-3.93
2023-02-09T09:19:50.367Z,-4.50
2023-02-09T09:22:17.054Z,-3.84
2023-02-09T09:24:43.872Z,-4.28
2023-02-09T09:27:10.913Z,-4.07
2023-02-09T09:29:37.896Z,-3.59
2023-02-09T09:32:04.774Z,-4.16
2023-02-09T09:34:31.459Z,-4.06
2023-02-09T09:36:58.206Z,-3.21
2023-02-09T09:39:26.145Z,-3.74
2023-02-09T09:41:57.013Z,-3.23
2023-02-09T09:44:35.085Z,-3.40
2023-02-09T09:47:10.732Z,-3.00
2023-02-09T09:49:37.927Z,-3.28
2023-02-09T09:52:20.359Z,-3.66
2023-02-09T09:54:47.622Z,-3.14
2023-02-09T09:57:28.055Z,-3.21
2023-02-09T09:59:56.462Z,-2.97
2023-02-09T10:02:33.664Z,-3.42
2023-02-09T10:05:20.803Z,-2.89
2023-02-09T10:08:01.449Z,-2.97
2023-02-09T10:10:41.203Z,-2.55
2023-02-09T10:13:17.320Z,-2.34
2023-02-09T10:15:48.362Z,-2.69
2023-02-09T10:18:16.868Z,-2.88
2023-02-09T10:20:51.144Z,-2.08
2023-02-09T10:23:44.265Z,-1.87
2023-02-09T10:26:14.009Z,-1.84
2023-02-09T10:28:55.264Z,-1.87
2023-02-09T10:31:25.055Z,-1.82
2023-02-09T10:34:04.252Z,-2.39
2023-02-09T10:36:35.664Z,-1.31
2023-02-09T10:39:04.433Z,-1.07
2023-02-09T10:41:34.106Z,-1.83
2023-02-09T10:44:05.635Z,-1.39
2023-02-09T10:46:33.526Z,-1.34
2023-02-09T10:49:00.427Z,-1.85
2023-02-09T10:51:27.614Z,-1.72
2023-02-09T10:54:19.059Z,-1.66
2023-02-09T10:56:48.595Z,-1.43
2023-02-09T10:59:24.334Z,-1.18
2023-02-09T11:01:55.792Z,-1.61
2023-02-09T11:04:26.099Z,-1.61
2023-02-09T11:07:04.132Z,-1.66
2023-02-09T11:09:36.595Z,-1.11
2023-02-09T11:12:03.668Z,-1.51
2023-02-09T11:14:30.547Z,-1.09
2023-02-09T11:17:13.357Z,-0.95
2023-02-09T11:20:01.892Z,-1.11
2023-02-09T11:22:50.663Z,-1.19
2023-02-09T11:25:25.069Z,-1.54
2023-02-09T11:27:54.892Z,-1.08
2023-02-09T11:30:28.377Z,-1.62
2023-02-09T11:33:19.280Z,-1.32
2023-02-09T11:36:13.680Z,-0.86
2023-02-09T11:38:49.215Z,-1.27
2023-02-09T11:41:23.934Z,-1.07
2023-02-09T11:43:53.329Z,-1.12
2023-02-09T11:46:23.107Z,-1.67
2023-02-09T11:49:07.123Z,-1.98
2023-02-09T11:51:39.348Z,-1.45
2023-02-09T11:54:22.910Z,-1.57
2023-02-09T11:56:52.730Z,-1.22
2023-02-09T11:59:29.670Z,-1.69
2023-02-09T12:02:26.726Z,-1.50
2023-02-09T12:04:56.321Z,-0.75
2023-02-09T12:07:30.252Z,-0.55
2023-02-09T12:10:17.015Z,-0.64
2023-02-09T12:13:22.077Z,-1.10
2023-02-09T12:16:00.841Z,-0.78
2023-02-09T12:18:30.620Z,-0.89
2023-02-09T12:21:01.497Z,-0.74
2023-02-09T12:23:37.226Z,-0.76
2023-02-09T12:26:16.190Z,-0.46
2023-02-09T12:29:02.610Z,-0.47
2023-02-09T12:31:31.599Z,-0.52
2023-02-09T12:33:58.197Z,-0.48
2023-02-09T12:36:34.616Z,-0.45
2023-02-09T12:39:24.141Z,-0.93
2023-02-09T12:41:51.008Z,-0.42
2023-02-09T12:44:17.784Z,-0.56
2023-02-09T12:46:44.558Z,-0.55
2023-02-09T12:49:11.294Z,-0.32
2023-02-09T12:51:44.100Z,-0.22
2023-02-09T12:54:31.872Z,-0.12
2023-02-09T12:57:17.060Z,-0.04
2023-02-09T12:59:50.388Z,-0.04
2023-02-09T13:02:38.738Z,0.05
2023-02-09T13:05:19.398Z,-0.49
2023-02-09T13:08:11.130Z,0.05
2023-02-09T13:10:59.402Z,0.24
2023-02-09T13:13:25.996Z,0.22
2023-02-09T13:16:02.622Z,-0.93
2023-02-09T13:18:49.658Z,0.36
2023-02-09T13:21:38.152Z,0.30
2023-02-09T13:24:19.047Z,0.38
2023-02-09T13:26:57.384Z,0.01
2023-02-09T13:29:27.053Z,0.05
2023-02-09T13:32:06.054Z,-0.05
2023-02-09T13:34:45.340Z,-0.40
2023-02-09T13:37:21.112Z,-0.23
2023-02-09T13:39:57.683Z,-0.06
2023-02-09T13:42:27.079Z,0.10
2023-02-09T13:44:56.044Z,0.02
2023-02-09T13:47:23.464Z,-0.11
2023-02-09T13:50:23.518Z,-0.85
2023-02-09T13:52:51.640Z,0.03
2023-02-09T13:55:26.949Z,0.04
2023-02-09T13:58:04.068Z,-0.24
2023-02-09T14:00:42.784Z,-0.15
2023-02-09T14:03:17.968Z,0.39
2023-02-09T14:06:10.767Z,0.48
2023-02-09T14:08:40.786Z,-0.09
2023-02-09T14:11:42.331Z,-0.28
2023-02-09T14:14:18.745Z,-0.23
2023-02-09T14:16:53.333Z,0.03
2023-02-09T14:19:31.749Z,-0.18
2023-02-09T14:21:59.393Z,-0.32
2023-02-09T14:24:27.789Z,-0.31
2023-02-09T14:27:00.093Z,0.13
2023-02-09T14:29:33.286Z,-0.34
2023-02-09T14:32:33.340Z,0.59
2023-02-09T14:35:28.025Z,0.72
2023-02-09T14:37:58.352Z,0.40
2023-02-09T14:40:33.389Z,0.68
2023-02-09T14:43:02.953Z,0.02
2023-02-09T14:45:38.739Z,0.54
2023-02-09T14:48:27.032Z,0.69
2023-02-09T14:50:57.629Z,-0.09
2023-02-09T14:53:28.074Z,0.36
2023-02-09T14:55:55.842Z,-0.34
2023-02-09T14:58:25.234Z,0.48
2023-02-09T15:00:53.723Z,0.34
2023-02-09T15:03:20.478Z,0.10
2023-02-09T15:05:49.779Z,0.07
2023-02-09T15:08:20.685Z,-0.50
2023-02-09T15:10:55.701Z,-0.22
2023-02-09T15:13:22.578Z,-0.47
2023-02-09T15:15:49.574Z,-0.25
2023-02-09T15:18:25.168Z,-0.92
2023-02-09T15:20:53.236Z,-0.82
2023-02-09T15:23:20.568Z,-0.15
2023-02-09T15:25:48.240Z,-1.40
2023-02-09T15:28:25.357Z,-0.18
2023-02-09T15:30:55.223Z,-0.75
2023-02-09T15:33:23.167Z,0.01
2023-02-09T15:35:50.218Z,-0.23
2023-02-09T15:38:18.924Z,0.03
2023-02-09T15:40:48.697Z,-0.22
2023-02-09T15:43:21.086Z,-0.14
2023-02-09T15:45:48.132Z,-0.36
2023-02-09T15:48:17.611Z,-1.61
2023-02-09T15:50:47.239Z,-0.79
2023-02-09T15:53:17.669Z,-3.32
2023-02-09T15:55:45.802Z,-0.27
2023-02-09T15:58:19.144Z,-0.12
2023-02-09T16:00:47.807Z,-0.32
2023-02-09T16:03:17.896Z,-0.38
2023-02-09T16:05:51.108Z,-0.36
2023-02-09T16:08:26.726Z,-0.39
2023-02-09T16:10:54.503Z,-0.34
2023-02-09T16:13:21.286Z,-0.60
2023-02-09T16:15:48.612Z,-0.48
2023-02-09T16:18:16.092Z,-0.50
2023-02-09T16:20:45.817Z,-1.43
2023-02-09T16:23:20.807Z,-1.00
2023-02-09T16:25:51.075Z,-1.04
2023-02-09T16:28:23.907Z,-0.78
2023-02-09T16:31:10.532Z,-0.96
2023-02-09T16:33:37.963Z,-1.23
2023-02-09T16:36:13.748Z,-0.87
2023-02-09T16:38:48.235Z,-0.87
2023-02-09T16:41:39.747Z,-1.00
2023-02-09T16:44:24.211Z,-1.05
2023-02-09T16:46:54.798Z,-1.00
2023-02-09T16:49:33.769Z,-0.97
2023-02-09T16:52:17.513Z,-0.96
2023-02-09T16:54:57.018Z,-1.60
2023-02-09T16:57:25.712Z,-1.57
2023-02-09T16:59:55.228Z,-1.44
2023-02-09T17:02:43.780Z,-1.37
2023-02-09T17:05:22.672Z,-1.38
2023-02-09T17:08:06.350Z,-1.33
2023-02-09T17:10:36.880Z,-1.46
2023-02-09T17:13:08.345Z,-2.10
2023-02-09T17:15:46.097Z,-1.74
2023-02-09T17:18:52.890Z,-1.36
2023-02-09T17:22:17.492Z,-1.73
2023-02-09T17:25:04.691Z,-1.71
2023-02-09T17:27:43.243Z,-1.84
2023-02-09T17:30:19.236Z,-1.91
2023-02-09T17:33:06.405Z,-1.94
2023-02-09T17:36:17.698Z,-3.04
2023-02-09T17:38:38.255Z,-2.08
2023-02-09T17:41:10.038Z,-1.97
2023-02-09T17:43:37.044Z,-2.49
2023-02-09T17:46:03.938Z,-2.35
2023-02-09T17:48:30.860Z,-2.33
2023-02-09T17:50:58.385Z,-1.84
2023-02-09T18:00:01.529Z,-2.11
2023-02-09T18:02:31.249Z,-2.00
2023-02-09T18:05:03.218Z,-1.92
2023-02-09T18:07:30.669Z,-2.17
2023-02-09T18:09:58.597Z,-1.95
2023-02-09T18:12:27.052Z,-2.05
2023-02-09T18:14:54.271Z,-2.27
2023-02-09T18:17:21.193Z,-2.32
2023-02-09T18:19:48.059Z,-2.31
2023-02-09T18:22:17.010Z,-3.00
2023-02-09T18:24:44.875Z,-2.45
2023-02-09T18:27:16.523Z,-3.12
2023-02-09T18:29:43.799Z,-2.62
2023-02-09T18:32:16.575Z,-2.30
2023-02-09T18:34:45.250Z,-2.14
2023-02-09T18:37:14.895Z,-2.48
2023-02-09T18:40:03.946Z,-2.88
2023-02-09T18:42:33.038Z,-2.45
2023-02-09T18:48:22.532Z,-2.66
2023-02-09T18:50:49.370Z,-2.60
2023-02-09T18:53:18.723Z,-2.25
2023-02-09T18:55:51.556Z,-2.49
2023-02-09T18:58:19.486Z,-2.20
2023-02-09T19:00:46.643Z,-2.93
2023-02-09T19:09:46.164Z,-4.08
2023-02-09T19:15:42.173Z,-3.90
2023-02-09T19:18:09.389Z,-2.30
2023-02-09T19:20:53.300Z,-2.41
2023-02-09T19:23:24.848Z,-3.48
2023-02-09T19:26:06.350Z,-2.94
2023-02-09T19:40:30.523Z,-5.35
2023-02-09T19:42:57.616Z,-5.24
2023-02-09T19:45:24.522Z,-2.70
2023-02-09T19:47:51.511Z,-2.80
2023-02-09T19:50:18.459Z,-2.86
2023-02-09T19:52:46.762Z,-3.53
2023-02-09T19:55:15.033Z,-3.10
2023-02-09T19:57:42.679Z,-3.02
2023-02-09T20:00:21.931Z,-3.54
2023-02-09T20:02:49.091Z,-3.01
2023-02-09T20:05:17.271Z,-3.79
2023-02-09T20:07:44.103Z,-4.94
2023-02-09T20:10:11.291Z,-3.42
2023-02-09T20:12:38.746Z,-3.39
2023-02-09T20:15:05.567Z,-3.41
2023-02-09T20:17:32.400Z,-3.72
2023-02-09T20:19:59.088Z,-3.47
2023-02-09T20:22:25.782Z,-4.39
2023-02-09T20:24:52.657Z,-4.83
2023-02-09T20:27:19.531Z,-5.59
2023-02-09T20:29:46.258Z,-3.83
2023-02-09T20:32:12.944Z,-4.32
2023-02-09T20:34:39.618Z,-4.00
2023-02-09T20:37:06.464Z,-3.88
2023-02-09T20:39:33.118Z,-3.23
2023-02-09T20:42:01.124Z,-3.50
2023-02-09T20:44:27.743Z,-3.76
2023-02-09T20:46:54.422Z,-4.38
2023-02-09T20:49:22.902Z,-4.32
2023-02-09T20:51:49.589Z,-3.61
2023-02-09T20:54:16.204Z,-3.60
2023-02-09T20:56:43.770Z,-3.37
2023-02-09T20:59:11.955Z,-3.38
2023-02-09T21:01:39.318Z,-4.56
2023-02-09T21:04:06.212Z,-3.22
2023-02-09T21:06:33.621Z,-3.67
2023-02-09T21:09:00.247Z,-4.03
2023-02-09T21:11:27.129Z,-3.71
2023-02-09T21:13:53.759Z,-3.74
2023-02-09T21:16:20.494Z,-3.87
2023-02-09T21:18:47.382Z,-3.43
2023-02-09T21:21:16.311Z,-3.77
2023-02-09T21:23:44.604Z,-4.17
2023-02-09T21:26:15.178Z,-3.73
2023-02-09T21:28:42.181Z,-4.00
2023-02-09T21:31:14.350Z,-3.63
2023-02-09T21:33:41.362Z,-3.82
2023-02-09T21:36:08.532Z,-3.89
2023-02-09T21:38:39.025Z,-3.79
2023-02-09T21:41:10.957Z,-4.41
2023-02-09T21:43:37.694Z,-3.86
2023-02-09T21:46:04.448Z,-3.47
2023-02-09T21:48:31.619Z,-4.47
2023-02-09T21:50:58.756Z,-5.89
2023-02-09T21:53:25.569Z,-3.78
2023-02-09T21:55:52.210Z,-3.78
2023-02-09T21:58:18.932Z,-6.17
2023-02-09T22:00:46.041Z,-4.00
2023-02-09T22:03:13.012Z,-4.15
2023-02-09T22:05:39.625Z,-4.27
2023-02-09T22:08:06.339Z,-4.08
2023-02-09T22:10:33.084Z,-4.10
2023-02-09T22:12:59.793Z,-4.44
2023-02-09T22:15:26.416Z,-4.29
2023-02-09T22:17:53.233Z,-4.68
2023-02-09T22:20:19.973Z,-6.36
2023-02-09T22:22:46.724Z,-4.66
2023-02-09T22:25:13.639Z,-4.65
2023-02-09T22:27:40.421Z,-4.33
2023-02-09T22:30:07.580Z,-8.23
2023-02-09T22:32:34.409Z,-4.40
2023-02-09T22:35:01.049Z,-4.71
2023-02-09T22:37:27.930Z,-3.94
2023-02-09T22:39:54.608Z,-5.20
2023-02-09T22:42:21.384Z,-4.43
2023-02-09T22:44:48.224Z,-4.52
2023-02-09T22:47:14.959Z,-4.77
2023-02-09T22:49:41.619Z,-4.51
2023-02-09T22:52:08.629Z,-3.94
2023-02-09T22:54:35.460Z,-4.78
2023-02-09T22:57:02.107Z,-4.41
2023-02-09T22:59:28.770Z,-5.35
2023-02-09T23:01:55.564Z,-3.88
2023-02-09T23:04:22.234Z,-4.65
2023-02-09T23:06:49.014Z,-4.02
2023-02-09T23:09:15.673Z,-4.00
2023-02-09T23:11:42.438Z,-4.66
2023-02-09T23:14:11.117Z,-3.72
2023-02-09T23:16:40.850Z,-5.69
2023-02-09T23:19:10.743Z,-5.13
2023-02-09T23:21:40.588Z,-7.71
2023-02-09T23:24:08.491Z,-5.66
2023-02-09T23:26:36.189Z,-4.02
2023-02-09T23:29:06.929Z,-7.50
2023-02-09T23:31:35.202Z,-4.23
2023-02-09T23:34:02.189Z,-4.17
2023-02-09T23:36:30.760Z,-4.20
2023-02-09T23:39:02.186Z,-4.26
2023-02-09T23:41:29.437Z,-4.80
2023-02-09T23:43:56.519Z,-4.54
2023-02-09T23:46:28.470Z,-4.07
2023-02-09T23:48:56.539Z,-4.41
2023-02-09T23:51:29.285Z,-4.12
2023-02-09T23:53:58.044Z,-4.62
2023-02-09T23:56:25.627Z,-4.19
2023-02-09T23:58:54.034Z,-4.50
